sensor_id;sensor_type;location;lat;lon;timestamp;P1;durP1;ratioP1;P2;durP2;ratioP2
12631;SDS011;6381;45.748;12.106;2023-09-19T00:00:56;17.88;;;11.43;;
12631;SDS011;6381;45.748;12.106;2023-09-19T00:03:29;15.77;;;10.50;;
12631;SDS011;6381;45.748;12.106;2023-09-19T00:05:59;14.60;;;11.45;;
12631;SDS011;6381;45.748;12.106;2023-09-19T00:08:29;11.70;;;10.13;;
12631;SDS011;6381;45.748;12.106;2023-09-19T00:11:02;12.35;;;10.75;;
12631;SDS011;6381;45.748;12.106;2023-09-19T00:13:33;18.58;;;12.20;;
12631;SDS011;6381;45.748;12.106;2023-09-19T00:16:08;12.15;;;10.93;;
12631;SDS011;6381;45.748;12.106;2023-09-19T00:18:39;14.07;;;11.57;;
12631;SDS011;6381;45.748;12.106;2023-09-19T00:21:09;17.13;;;13.70;;
12631;SDS011;6381;45.748;12.106;2023-09-19T00:23:39;17.63;;;13.48;;
12631;SDS011;6381;45.748;12.106;2023-09-19T00:26:11;18.30;;;13.70;;
12631;SDS011;6381;45.748;12.106;2023-09-19T00:28:45;17.20;;;13.38;;
12631;SDS011;6381;45.748;12.106;2023-09-19T00:31:14;16.23;;;13.98;;
12631;SDS011;6381;45.748;12.106;2023-09-19T00:33:45;17.02;;;12.80;;
12631;SDS011;6381;45.748;12.106;2023-09-19T00:36:16;14.40;;;12.93;;
12631;SDS011;6381;45.748;12.106;2023-09-19T00:38:47;15.95;;;13.82;;
12631;SDS011;6381;45.748;12.106;2023-09-19T00:41:18;17.45;;;14.10;;
12631;SDS011;6381;45.748;12.106;2023-09-19T00:43:48;22.45;;;17.08;;
12631;SDS011;6381;45.748;12.106;2023-09-19T00:46:18;18.90;;;15.77;;
12631;SDS011;6381;45.748;12.106;2023-09-19T00:48:48;22.23;;;15.90;;
12631;SDS011;6381;45.748;12.106;2023-09-19T00:51:19;21.05;;;14.73;;
12631;SDS011;6381;45.748;12.106;2023-09-19T00:53:50;20.75;;;17.00;;
12631;SDS011;6381;45.748;12.106;2023-09-19T00:56:22;17.98;;;15.73;;
12631;SDS011;6381;45.748;12.106;2023-09-19T00:58:52;19.55;;;15.73;;
12631;SDS011;6381;45.748;12.106;2023-09-19T01:01:22;20.13;;;15.82;;
12631;SDS011;6381;45.748;12.106;2023-09-19T01:03:52;22.73;;;16.88;;
12631;SDS011;6381;45.748;12.106;2023-09-19T01:06:23;18.55;;;16.63;;
12631;SDS011;6381;45.748;12.106;2023-09-19T01:08:53;19.38;;;16.05;;
12631;SDS011;6381;45.748;12.106;2023-09-19T01:11:28;18.90;;;15.63;;
12631;SDS011;6381;45.748;12.106;2023-09-19T01:14:11;21.05;;;16.05;;
12631;SDS011;6381;45.748;12.106;2023-09-19T01:16:50;18.23;;;16.25;;
12631;SDS011;6381;45.748;12.106;2023-09-19T01:22:53;20.02;;;16.90;;
12631;SDS011;6381;45.748;12.106;2023-09-19T01:25:36;21.05;;;17.40;;
12631;SDS011;6381;45.748;12.106;2023-09-19T01:31:31;21.77;;;17.20;;
12631;SDS011;6381;45.748;12.106;2023-09-19T01:34:07;25.15;;;18.00;;
12631;SDS011;6381;45.748;12.106;2023-09-19T01:36:37;20.33;;;18.10;;
12631;SDS011;6381;45.748;12.106;2023-09-19T01:39:07;20.85;;;17.27;;
12631;SDS011;6381;45.748;12.106;2023-09-19T01:41:54;19.92;;;18.00;;
12631;SDS011;6381;45.748;12.106;2023-09-19T01:44:34;19.83;;;16.75;;
12631;SDS011;6381;45.748;12.106;2023-09-19T01:47:13;22.98;;;17.52;;
12631;SDS011;6381;45.748;12.106;2023-09-19T01:49:55;17.35;;;15.63;;
12631;SDS011;6381;45.748;12.106;2023-09-19T01:52:31;19.92;;;17.60;;
12631;SDS011;6381;45.748;12.106;2023-09-19T01:55:06;20.10;;;16.30;;
12631;SDS011;6381;45.748;12.106;2023-09-19T01:57:40;17.10;;;15.18;;
12631;SDS011;6381;45.748;12.106;2023-09-19T02:00:17;20.77;;;15.57;;
12631;SDS011;6381;45.748;12.106;2023-09-19T02:02:50;19.73;;;16.20;;
12631;SDS011;6381;45.748;12.106;2023-09-19T02:05:23;19.00;;;15.95;;
12631;SDS011;6381;45.748;12.106;2023-09-19T02:07:54;16.75;;;15.05;;
12631;SDS011;6381;45.748;12.106;2023-09-19T02:10:26;17.98;;;15.80;;
12631;SDS011;6381;45.748;12.106;2023-09-19T02:12:58;18.77;;;16.02;;
12631;SDS011;6381;45.748;12.106;2023-09-19T02:15:27;16.83;;;15.05;;
12631;SDS011;6381;45.748;12.106;2023-09-19T02:18:03;18.17;;;14.90;;
12631;SDS011;6381;45.748;12.106;2023-09-19T02:20:34;17.63;;;15.82;;
12631;SDS011;6381;45.748;12.106;2023-09-19T02:23:04;18.52;;;15.68;;
12631;SDS011;6381;45.748;12.106;2023-09-19T02:25:35;18.15;;;13.93;;
12631;SDS011;6381;45.748;12.106;2023-09-19T02:28:06;14.88;;;13.07;;
12631;SDS011;6381;45.748;12.106;2023-09-19T02:30:36;15.32;;;12.68;;
12631;SDS011;6381;45.748;12.106;2023-09-19T02:33:08;15.70;;;12.10;;
12631;SDS011;6381;45.748;12.106;2023-09-19T02:35:36;15.43;;;12.75;;
12631;SDS011;6381;45.748;12.106;2023-09-19T02:38:06;16.52;;;12.48;;
12631;SDS011;6381;45.748;12.106;2023-09-19T02:40:38;16.25;;;14.38;;
12631;SDS011;6381;45.748;12.106;2023-09-19T02:43:10;14.13;;;12.02;;
12631;SDS011;6381;45.748;12.106;2023-09-19T02:45:40;12.93;;;9.63;;
12631;SDS011;6381;45.748;12.106;2023-09-19T02:48:11;10.98;;;9.77;;
12631;SDS011;6381;45.748;12.106;2023-09-19T02:50:42;14.15;;;9.70;;
12631;SDS011;6381;45.748;12.106;2023-09-19T02:53:13;9.70;;;8.70;;
12631;SDS011;6381;45.748;12.106;2023-09-19T02:55:43;11.27;;;8.85;;
12631;SDS011;6381;45.748;12.106;2023-09-19T02:58:13;12.45;;;11.15;;
12631;SDS011;6381;45.748;12.106;2023-09-19T03:00:43;11.48;;;9.07;;
12631;SDS011;6381;45.748;12.106;2023-09-19T03:03:17;12.10;;;8.38;;
12631;SDS011;6381;45.748;12.106;2023-09-19T03:05:47;8.73;;;7.85;;
12631;SDS011;6381;45.748;12.106;2023-09-19T03:08:21;10.02;;;8.35;;
12631;SDS011;6381;45.748;12.106;2023-09-19T03:10:52;12.20;;;8.15;;
12631;SDS011;6381;45.748;12.106;2023-09-19T03:13:22;12.20;;;8.73;;
12631;SDS011;6381;45.748;12.106;2023-09-19T03:15:54;9.25;;;8.20;;
12631;SDS011;6381;45.748;12.106;2023-09-19T03:18:28;11.30;;;8.88;;
12631;SDS011;6381;45.748;12.106;2023-09-19T03:20:59;12.48;;;9.63;;
12631;SDS011;6381;45.748;12.106;2023-09-19T03:23:29;12.90;;;9.60;;
12631;SDS011;6381;45.748;12.106;2023-09-19T03:25:58;14.43;;;11.13;;
12631;SDS011;6381;45.748;12.106;2023-09-19T03:28:28;15.43;;;12.52;;
12631;SDS011;6381;45.748;12.106;2023-09-19T03:30:59;17.08;;;14.52;;
12631;SDS011;6381;45.748;12.106;2023-09-19T03:33:33;19.80;;;14.68;;
12631;SDS011;6381;45.748;12.106;2023-09-19T03:36:04;16.75;;;13.75;;
12631;SDS011;6381;45.748;12.106;2023-09-19T03:38:34;19.52;;;15.48;;
12631;SDS011;6381;45.748;12.106;2023-09-19T03:41:04;23.23;;;15.80;;
12631;SDS011;6381;45.748;12.106;2023-09-19T03:43:35;19.45;;;17.08;;
12631;SDS011;6381;45.748;12.106;2023-09-19T03:46:05;20.70;;;17.75;;
12631;SDS011;6381;45.748;12.106;2023-09-19T03:48:39;23.27;;;17.77;;
12631;SDS011;6381;45.748;12.106;2023-09-19T03:51:10;21.70;;;17.05;;
12631;SDS011;6381;45.748;12.106;2023-09-19T03:53:40;18.80;;;16.80;;
12631;SDS011;6381;45.748;12.106;2023-09-19T03:56:10;25.30;;;17.58;;
12631;SDS011;6381;45.748;12.106;2023-09-19T03:58:40;23.60;;;17.50;;
12631;SDS011;6381;45.748;12.106;2023-09-19T04:01:10;21.67;;;16.75;;
12631;SDS011;6381;45.748;12.106;2023-09-19T04:03:42;20.23;;;15.70;;
12631;SDS011;6381;45.748;12.106;2023-09-19T04:06:15;22.63;;;15.27;;
12631;SDS011;6381;45.748;12.106;2023-09-19T04:08:46;19.88;;;14.82;;
12631;SDS011;6381;45.748;12.106;2023-09-19T04:11:16;17.98;;;14.55;;
12631;SDS011;6381;45.748;12.106;2023-09-19T04:13:46;16.75;;;14.57;;
12631;SDS011;6381;45.748;12.106;2023-09-19T04:16:16;16.67;;;14.88;;
12631;SDS011;6381;45.748;12.106;2023-09-19T04:18:48;17.25;;;14.07;;
12631;SDS011;6381;45.748;12.106;2023-09-19T04:21:18;15.13;;;12.95;;
12631;SDS011;6381;45.748;12.106;2023-09-19T04:23:48;15.77;;;13.75;;
12631;SDS011;6381;45.748;12.106;2023-09-19T04:26:18;14.85;;;13.30;;
12631;SDS011;6381;45.748;12.106;2023-09-19T04:28:49;13.70;;;12.25;;
12631;SDS011;6381;45.748;12.106;2023-09-19T04:31:19;17.85;;;12.88;;
12631;SDS011;6381;45.748;12.106;2023-09-19T04:33:51;16.52;;;12.45;;
12631;SDS011;6381;45.748;12.106;2023-09-19T04:36:21;16.45;;;12.30;;
12631;SDS011;6381;45.748;12.106;2023-09-19T04:39:02;12.48;;;10.85;;
12631;SDS011;6381;45.748;12.106;2023-09-19T04:41:34;14.93;;;11.27;;
12631;SDS011;6381;45.748;12.106;2023-09-19T04:44:06;13.63;;;10.82;;
12631;SDS011;6381;45.748;12.106;2023-09-19T04:46:36;13.85;;;11.52;;
12631;SDS011;6381;45.748;12.106;2023-09-19T04:49:07;14.63;;;11.48;;
12631;SDS011;6381;45.748;12.106;2023-09-19T04:51:37;13.50;;;11.25;;
12631;SDS011;6381;45.748;12.106;2023-09-19T04:54:07;13.98;;;11.63;;
12631;SDS011;6381;45.748;12.106;2023-09-19T04:56:37;14.15;;;12.35;;
12631;SDS011;6381;45.748;12.106;2023-09-19T04:59:08;12.93;;;11.40;;
12631;SDS011;6381;45.748;12.106;2023-09-19T05:01:39;14.02;;;12.52;;
12631;SDS011;6381;45.748;12.106;2023-09-19T05:04:10;17.35;;;13.75;;
12631;SDS011;6381;45.748;12.106;2023-09-19T05:06:40;15.77;;;13.48;;
12631;SDS011;6381;45.748;12.106;2023-09-19T05:09:13;14.38;;;12.80;;
12631;SDS011;6381;45.748;12.106;2023-09-19T05:11:43;17.40;;;13.65;;
12631;SDS011;6381;45.748;12.106;2023-09-19T05:14:13;17.92;;;13.10;;
12631;SDS011;6381;45.748;12.106;2023-09-19T05:16:43;16.65;;;13.23;;
12631;SDS011;6381;45.748;12.106;2023-09-19T05:19:15;15.35;;;13.52;;
12631;SDS011;6381;45.748;12.106;2023-09-19T05:21:45;16.65;;;13.57;;
12631;SDS011;6381;45.748;12.106;2023-09-19T05:24:15;16.70;;;13.32;;
12631;SDS011;6381;45.748;12.106;2023-09-19T05:26:45;15.10;;;13.38;;
12631;SDS011;6381;45.748;12.106;2023-09-19T05:29:14;15.85;;;13.98;;
12631;SDS011;6381;45.748;12.106;2023-09-19T05:31:44;16.73;;;15.05;;
12631;SDS011;6381;45.748;12.106;2023-09-19T05:34:15;20.10;;;15.77;;
12631;SDS011;6381;45.748;12.106;2023-09-19T05:36:48;20.48;;;16.52;;
12631;SDS011;6381;45.748;12.106;2023-09-19T05:39:19;20.02;;;17.52;;
12631;SDS011;6381;45.748;12.106;2023-09-19T05:41:50;19.63;;;17.65;;
12631;SDS011;6381;45.748;12.106;2023-09-19T05:44:21;19.77;;;17.67;;
12631;SDS011;6381;45.748;12.106;2023-09-19T05:46:50;19.83;;;17.73;;
12631;SDS011;6381;45.748;12.106;2023-09-19T05:49:22;21.80;;;19.45;;
12631;SDS011;6381;45.748;12.106;2023-09-19T05:51:52;23.13;;;19.80;;
12631;SDS011;6381;45.748;12.106;2023-09-19T05:54:26;24.75;;;21.73;;
12631;SDS011;6381;45.748;12.106;2023-09-19T05:56:56;24.63;;;21.92;;
12631;SDS011;6381;45.748;12.106;2023-09-19T05:59:26;26.20;;;22.23;;
12631;SDS011;6381;45.748;12.106;2023-09-19T06:01:56;26.42;;;22.77;;
12631;SDS011;6381;45.748;12.106;2023-09-19T06:04:29;27.67;;;22.98;;
12631;SDS011;6381;45.748;12.106;2023-09-19T06:06:59;31.00;;;24.90;;
12631;SDS011;6381;45.748;12.106;2023-09-19T06:09:33;26.90;;;23.08;;
12631;SDS011;6381;45.748;12.106;2023-09-19T06:12:03;27.90;;;23.83;;
12631;SDS011;6381;45.748;12.106;2023-09-19T06:14:33;28.13;;;23.90;;
12631;SDS011;6381;45.748;12.106;2023-09-19T06:17:03;26.35;;;23.25;;
12631;SDS011;6381;45.748;12.106;2023-09-19T06:19:35;26.83;;;23.63;;
12631;SDS011;6381;45.748;12.106;2023-09-19T06:22:05;28.45;;;22.52;;
12631;SDS011;6381;45.748;12.106;2023-09-19T06:24:35;28.98;;;21.73;;
12631;SDS011;6381;45.748;12.106;2023-09-19T06:27:05;28.90;;;21.95;;
12631;SDS011;6381;45.748;12.106;2023-09-19T06:29:36;25.25;;;21.55;;
12631;SDS011;6381;45.748;12.106;2023-09-19T06:32:07;24.45;;;20.95;;
12631;SDS011;6381;45.748;12.106;2023-09-19T06:34:39;24.60;;;19.55;;
12631;SDS011;6381;45.748;12.106;2023-09-19T06:37:10;25.10;;;20.10;;
12631;SDS011;6381;45.748;12.106;2023-09-19T06:39:41;24.75;;;21.60;;
12631;SDS011;6381;45.748;12.106;2023-09-19T06:42:10;20.95;;;18.30;;
12631;SDS011;6381;45.748;12.106;2023-09-19T06:44:40;25.65;;;19.48;;
12631;SDS011;6381;45.748;12.106;2023-09-19T06:47:10;22.88;;;18.88;;
12631;SDS011;6381;45.748;12.106;2023-09-19T06:49:42;20.73;;;18.60;;
12631;SDS011;6381;45.748;12.106;2023-09-19T06:52:12;22.70;;;19.25;;
12631;SDS011;6381;45.748;12.106;2023-09-19T06:54:43;21.83;;;19.08;;
12631;SDS011;6381;45.748;12.106;2023-09-19T06:57:13;20.48;;;17.77;;
12631;SDS011;6381;45.748;12.106;2023-09-19T06:59:42;22.77;;;18.20;;
12631;SDS011;6381;45.748;12.106;2023-09-19T07:02:12;20.65;;;16.90;;
12631;SDS011;6381;45.748;12.106;2023-09-19T07:04:44;21.23;;;17.80;;
12631;SDS011;6381;45.748;12.106;2023-09-19T07:07:14;18.88;;;16.98;;
12631;SDS011;6381;45.748;12.106;2023-09-19T07:09:44;18.88;;;16.90;;
12631;SDS011;6381;45.748;12.106;2023-09-19T07:12:16;18.90;;;16.90;;
12631;SDS011;6381;45.748;12.106;2023-09-19T07:14:47;20.95;;;18.05;;
12631;SDS011;6381;45.748;12.106;2023-09-19T07:17:16;19.63;;;17.42;;
12631;SDS011;6381;45.748;12.106;2023-09-19T07:19:48;18.40;;;16.00;;
12631;SDS011;6381;45.748;12.106;2023-09-19T07:22:19;19.05;;;16.70;;
12631;SDS011;6381;45.748;12.106;2023-09-19T07:24:49;22.60;;;17.95;;
12631;SDS011;6381;45.748;12.106;2023-09-19T07:27:19;22.40;;;16.98;;
12631;SDS011;6381;45.748;12.106;2023-09-19T07:29:49;17.52;;;15.63;;
12631;SDS011;6381;45.748;12.106;2023-09-19T07:32:21;19.05;;;15.35;;
12631;SDS011;6381;45.748;12.106;2023-09-19T07:34:52;15.27;;;13.70;;
12631;SDS011;6381;45.748;12.106;2023-09-19T07:37:23;16.33;;;13.02;;
12631;SDS011;6381;45.748;12.106;2023-09-19T07:39:53;17.55;;;12.57;;
12631;SDS011;6381;45.748;12.106;2023-09-19T07:42:23;14.32;;;12.05;;
12631;SDS011;6381;45.748;12.106;2023-09-19T07:44:53;13.90;;;11.20;;
12631;SDS011;6381;45.748;12.106;2023-09-19T07:47:23;14.73;;;11.55;;
12631;SDS011;6381;45.748;12.106;2023-09-19T07:49:55;16.20;;;13.30;;
12631;SDS011;6381;45.748;12.106;2023-09-19T07:52:25;14.77;;;11.93;;
12631;SDS011;6381;45.748;12.106;2023-09-19T07:54:55;11.68;;;9.45;;
12631;SDS011;6381;45.748;12.106;2023-09-19T07:57:24;10.93;;;8.45;;
12631;SDS011;6381;45.748;12.106;2023-09-19T07:59:55;9.20;;;8.23;;
12631;SDS011;6381;45.748;12.106;2023-09-19T08:02:25;9.77;;;7.97;;
12631;SDS011;6381;45.748;12.106;2023-09-19T08:04:57;8.65;;;6.72;;
12631;SDS011;6381;45.748;12.106;2023-09-19T08:07:28;9.15;;;5.57;;
12631;SDS011;6381;45.748;12.106;2023-09-19T08:09:58;9.93;;;5.70;;
12631;SDS011;6381;45.748;12.106;2023-09-19T08:12:28;7.30;;;5.47;;
12631;SDS011;6381;45.748;12.106;2023-09-19T08:15:00;8.10;;;5.60;;
12631;SDS011;6381;45.748;12.106;2023-09-19T08:17:33;8.88;;;5.50;;
12631;SDS011;6381;45.748;12.106;2023-09-19T08:20:05;9.40;;;6.00;;
12631;SDS011;6381;45.748;12.106;2023-09-19T08:22:43;7.68;;;5.35;;
12631;SDS011;6381;45.748;12.106;2023-09-19T08:25:17;8.38;;;6.25;;
12631;SDS011;6381;45.748;12.106;2023-09-19T08:27:47;9.68;;;5.90;;
12631;SDS011;6381;45.748;12.106;2023-09-19T08:30:17;9.40;;;6.45;;
12631;SDS011;6381;45.748;12.106;2023-09-19T08:32:56;6.75;;;5.60;;
12631;SDS011;6381;45.748;12.106;2023-09-19T08:35:28;17.45;;;5.88;;
12631;SDS011;6381;45.748;12.106;2023-09-19T08:37:58;7.10;;;5.55;;
12631;SDS011;6381;45.748;12.106;2023-09-19T08:40:32;8.65;;;6.50;;
12631;SDS011;6381;45.748;12.106;2023-09-19T08:43:07;11.68;;;6.60;;
12631;SDS011;6381;45.748;12.106;2023-09-19T08:45:39;9.25;;;6.43;;
12631;SDS011;6381;45.748;12.106;2023-09-19T08:48:17;11.77;;;6.65;;
12631;SDS011;6381;45.748;12.106;2023-09-19T08:50:54;11.95;;;7.47;;
12631;SDS011;6381;45.748;12.106;2023-09-19T08:53:26;11.48;;;7.63;;
12631;SDS011;6381;45.748;12.106;2023-09-19T08:56:00;10.77;;;6.97;;
12631;SDS011;6381;45.748;12.106;2023-09-19T08:58:35;14.50;;;7.75;;
12631;SDS011;6381;45.748;12.106;2023-09-19T09:01:15;10.07;;;6.65;;
12631;SDS011;6381;45.748;12.106;2023-09-19T09:03:55;14.07;;;7.75;;
12631;SDS011;6381;45.748;12.106;2023-09-19T09:06:26;11.27;;;7.53;;
12631;SDS011;6381;45.748;12.106;2023-09-19T09:09:00;11.70;;;8.80;;
12631;SDS011;6381;45.748;12.106;2023-09-19T09:11:32;12.65;;;8.10;;
12631;SDS011;6381;45.748;12.106;2023-09-19T09:14:02;13.32;;;7.93;;
12631;SDS011;6381;45.748;12.106;2023-09-19T09:16:35;12.18;;;7.82;;
12631;SDS011;6381;45.748;12.106;2023-09-19T09:19:05;13.40;;;8.07;;
12631;SDS011;6381;45.748;12.106;2023-09-19T09:21:36;11.98;;;8.77;;
12631;SDS011;6381;45.748;12.106;2023-09-19T09:26:55;12.88;;;8.65;;
12631;SDS011;6381;45.748;12.106;2023-09-19T09:29:41;10.82;;;9.20;;
12631;SDS011;6381;45.748;12.106;2023-09-19T09:32:19;14.32;;;8.93;;
12631;SDS011;6381;45.748;12.106;2023-09-19T09:34:51;14.50;;;8.65;;
12631;SDS011;6381;45.748;12.106;2023-09-19T09:37:28;12.52;;;8.20;;
12631;SDS011;6381;45.748;12.106;2023-09-19T09:39:59;11.52;;;7.75;;
12631;SDS011;6381;45.748;12.106;2023-09-19T09:42:47;15.88;;;8.55;;
12631;SDS011;6381;45.748;12.106;2023-09-19T09:45:20;10.90;;;7.45;;
12631;SDS011;6381;45.748;12.106;2023-09-19T09:47:56;15.32;;;8.13;;
12631;SDS011;6381;45.748;12.106;2023-09-19T09:50:28;14.90;;;8.20;;
12631;SDS011;6381;45.748;12.106;2023-09-19T09:53:22;17.42;;;8.77;;
12631;SDS011;6381;45.748;12.106;2023-09-19T09:55:59;15.75;;;8.75;;
12631;SDS011;6381;45.748;12.106;2023-09-19T09:58:33;13.70;;;8.07;;
12631;SDS011;6381;45.748;12.106;2023-09-19T10:01:04;12.63;;;7.30;;
12631;SDS011;6381;45.748;12.106;2023-09-19T10:03:38;13.43;;;8.30;;
12631;SDS011;6381;45.748;12.106;2023-09-19T10:06:12;13.20;;;7.18;;
12631;SDS011;6381;45.748;12.106;2023-09-19T10:08:59;11.18;;;6.40;;
12631;SDS011;6381;45.748;12.106;2023-09-19T10:11:40;13.10;;;7.22;;
12631;SDS011;6381;45.748;12.106;2023-09-19T10:14:12;13.70;;;8.10;;
12631;SDS011;6381;45.748;12.106;2023-09-19T10:16:45;13.27;;;7.55;;
12631;SDS011;6381;45.748;12.106;2023-09-19T10:19:18;11.52;;;7.22;;
12631;SDS011;6381;45.748;12.106;2023-09-19T10:21:53;14.15;;;8.60;;
12631;SDS011;6381;45.748;12.106;2023-09-19T10:24:26;11.77;;;7.57;;
12631;SDS011;6381;45.748;12.106;2023-09-19T10:26:59;11.55;;;8.02;;
12631;SDS011;6381;45.748;12.106;2023-09-19T10:29:32;10.50;;;7.65;;
12631;SDS011;6381;45.748;12.106;2023-09-19T10:32:03;12.07;;;7.40;;
12631;SDS011;6381;45.748;12.106;2023-09-19T10:34:36;13.02;;;7.80;;
12631;SDS011;6381;45.748;12.106;2023-09-19T10:37:09;12.32;;;6.60;;
12631;SDS011;6381;45.748;12.106;2023-09-19T10:39:46;9.30;;;6.90;;
12631;SDS011;6381;45.748;12.106;2023-09-19T10:42:18;11.45;;;7.60;;
12631;SDS011;6381;45.748;12.106;2023-09-19T10:44:50;11.30;;;6.88;;
12631;SDS011;6381;45.748;12.106;2023-09-19T10:47:22;11.02;;;6.80;;
12631;SDS011;6381;45.748;12.106;2023-09-19T10:49:52;11.68;;;6.72;;
12631;SDS011;6381;45.748;12.106;2023-09-19T10:52:23;12.38;;;7.10;;
12631;SDS011;6381;45.748;12.106;2023-09-19T10:54:58;15.73;;;6.50;;
12631;SDS011;6381;45.748;12.106;2023-09-19T10:57:29;9.85;;;6.10;;
12631;SDS011;6381;45.748;12.106;2023-09-19T11:00:03;10.52;;;6.88;;
12631;SDS011;6381;45.748;12.106;2023-09-19T11:08:53;15.35;;;7.18;;
12631;SDS011;6381;45.748;12.106;2023-09-19T11:11:48;10.48;;;5.85;;
12631;SDS011;6381;45.748;12.106;2023-09-19T11:14:38;17.15;;;7.00;;
12631;SDS011;6381;45.748;12.106;2023-09-19T11:20:18;14.23;;;5.78;;
12631;SDS011;6381;45.748;12.106;2023-09-19T11:23:17;11.68;;;5.90;;
12631;SDS011;6381;45.748;12.106;2023-09-19T11:25:54;14.73;;;5.93;;
12631;SDS011;6381;45.748;12.106;2023-09-19T11:28:29;12.88;;;5.85;;
12631;SDS011;6381;45.748;12.106;2023-09-19T11:31:41;13.52;;;6.13;;
12631;SDS011;6381;45.748;12.106;2023-09-19T11:34:41;11.40;;;5.47;;
12631;SDS011;6381;45.748;12.106;2023-09-19T11:40:46;10.57;;;5.18;;
12631;SDS011;6381;45.748;12.106;2023-09-19T11:43:29;11.63;;;5.20;;
12631;SDS011;6381;45.748;12.106;2023-09-19T11:46:07;10.43;;;5.05;;
12631;SDS011;6381;45.748;12.106;2023-09-19T11:48:38;12.32;;;5.88;;
12631;SDS011;6381;45.748;12.106;2023-09-19T11:51:18;11.52;;;5.32;;
12631;SDS011;6381;45.748;12.106;2023-09-19T11:53:51;12.70;;;5.53;;
12631;SDS011;6381;45.748;12.106;2023-09-19T11:56:22;10.80;;;5.25;;
12631;SDS011;6381;45.748;12.106;2023-09-19T11:58:56;11.27;;;5.90;;
12631;SDS011;6381;45.748;12.106;2023-09-19T12:01:29;12.20;;;5.40;;
12631;SDS011;6381;45.748;12.106;2023-09-19T12:04:02;8.95;;;5.30;;
12631;SDS011;6381;45.748;12.106;2023-09-19T12:06:34;12.25;;;5.30;;
12631;SDS011;6381;45.748;12.106;2023-09-19T12:09:06;12.00;;;5.10;;
12631;SDS011;6381;45.748;12.106;2023-09-19T12:11:44;8.38;;;4.20;;
12631;SDS011;6381;45.748;12.106;2023-09-19T12:14:21;10.23;;;4.35;;
12631;SDS011;6381;45.748;12.106;2023-09-19T12:16:54;11.52;;;4.78;;
12631;SDS011;6381;45.748;12.106;2023-09-19T12:19:24;9.50;;;4.88;;
12631;SDS011;6381;45.748;12.106;2023-09-19T12:21:59;14.40;;;5.13;;
12631;SDS011;6381;45.748;12.106;2023-09-19T12:24:32;11.75;;;4.60;;
12631;SDS011;6381;45.748;12.106;2023-09-19T12:27:06;11.43;;;4.38;;
12631;SDS011;6381;45.748;12.106;2023-09-19T12:29:43;16.52;;;4.70;;
12631;SDS011;6381;45.748;12.106;2023-09-19T12:32:16;8.00;;;4.65;;
12631;SDS011;6381;45.748;12.106;2023-09-19T12:34:51;10.35;;;4.95;;
12631;SDS011;6381;45.748;12.106;2023-09-19T12:37:23;10.40;;;4.90;;
12631;SDS011;6381;45.748;12.106;2023-09-19T12:40:04;12.35;;;5.03;;
12631;SDS011;6381;45.748;12.106;2023-09-19T12:42:45;9.63;;;4.50;;
12631;SDS011;6381;45.748;12.106;2023-09-19T12:45:16;12.15;;;5.20;;
12631;SDS011;6381;45.748;12.106;2023-09-19T12:51:02;14.75;;;5.05;;
12631;SDS011;6381;45.748;12.106;2023-09-19T12:53:37;12.75;;;4.60;;
12631;SDS011;6381;45.748;12.106;2023-09-19T12:56:12;11.68;;;4.72;;
12631;SDS011;6381;45.748;12.106;2023-09-19T12:58:50;12.25;;;4.57;;
12631;SDS011;6381;45.748;12.106;2023-09-19T13:01:22;7.82;;;4.07;;
12631;SDS011;6381;45.748;12.106;2023-09-19T13:04:11;12.25;;;4.47;;
12631;SDS011;6381;45.748;12.106;2023-09-19T13:06:46;10.50;;;4.45;;
12631;SDS011;6381;45.748;12.106;2023-09-19T13:09:19;10.32;;;4.95;;
12631;SDS011;6381;45.748;12.106;2023-09-19T13:11:49;11.85;;;5.00;;
12631;SDS011;6381;45.748;12.106;2023-09-19T13:14:22;12.35;;;4.60;;
12631;SDS011;6381;45.748;12.106;2023-09-19T13:16:55;10.82;;;4.63;;
12631;SDS011;6381;45.748;12.106;2023-09-19T13:19:37;10.90;;;4.63;;
12631;SDS011;6381;45.748;12.106;2023-09-19T13:25:09;9.15;;;4.38;;
12631;SDS011;6381;45.748;12.106;2023-09-19T13:27:42;13.90;;;5.07;;
12631;SDS011;6381;45.748;12.106;2023-09-19T13:30:13;14.13;;;4.85;;
12631;SDS011;6381;45.748;12.106;2023-09-19T13:32:43;8.90;;;4.85;;
12631;SDS011;6381;45.748;12.106;2023-09-19T13:35:14;9.50;;;4.53;;
12631;SDS011;6381;45.748;12.106;2023-09-19T13:37:46;14.90;;;4.82;;
12631;SDS011;6381;45.748;12.106;2023-09-19T13:40:20;13.27;;;5.10;;
12631;SDS011;6381;45.748;12.106;2023-09-19T13:42:50;12.38;;;4.20;;
12631;SDS011;6381;45.748;12.106;2023-09-19T13:45:21;9.52;;;4.55;;
12631;SDS011;6381;45.748;12.106;2023-09-19T13:47:52;13.55;;;4.63;;
12631;SDS011;6381;45.748;12.106;2023-09-19T13:50:22;18.35;;;4.55;;
12631;SDS011;6381;45.748;12.106;2023-09-19T13:52:56;10.10;;;4.97;;
12631;SDS011;6381;45.748;12.106;2023-09-19T13:55:29;10.77;;;4.15;;
12631;SDS011;6381;45.748;12.106;2023-09-19T13:57:59;10.32;;;4.38;;
12631;SDS011;6381;45.748;12.106;2023-09-19T14:00:34;10.85;;;4.57;;
12631;SDS011;6381;45.748;12.106;2023-09-19T14:03:06;9.63;;;4.25;;
12631;SDS011;6381;45.748;12.106;2023-09-19T14:05:36;8.68;;;4.20;;
12631;SDS011;6381;45.748;12.106;2023-09-19T14:08:06;11.63;;;4.38;;
12631;SDS011;6381;45.748;12.106;2023-09-19T14:10:38;10.25;;;4.15;;
12631;SDS011;6381;45.748;12.106;2023-09-19T14:13:08;10.35;;;4.65;;
12631;SDS011;6381;45.748;12.106;2023-09-19T14:15:40;10.80;;;5.22;;
12631;SDS011;6381;45.748;12.106;2023-09-19T14:18:11;14.82;;;4.40;;
12631;SDS011;6381;45.748;12.106;2023-09-19T14:20:40;14.48;;;5.20;;
12631;SDS011;6381;45.748;12.106;2023-09-19T14:23:11;16.25;;;4.70;;
12631;SDS011;6381;45.748;12.106;2023-09-19T14:25:42;6.82;;;3.55;;
12631;SDS011;6381;45.748;12.106;2023-09-19T14:28:12;8.30;;;3.88;;
12631;SDS011;6381;45.748;12.106;2023-09-19T14:30:43;8.23;;;3.70;;
12631;SDS011;6381;45.748;12.106;2023-09-19T14:33:13;8.38;;;3.45;;
12631;SDS011;6381;45.748;12.106;2023-09-19T14:35:44;11.45;;;3.90;;
12631;SDS011;6381;45.748;12.106;2023-09-19T14:38:14;7.57;;;3.50;;
12631;SDS011;6381;45.748;12.106;2023-09-19T14:40:46;11.30;;;3.75;;
12631;SDS011;6381;45.748;12.106;2023-09-19T14:43:17;7.70;;;3.63;;
12631;SDS011;6381;45.748;12.106;2023-09-19T14:45:47;5.57;;;2.85;;
12631;SDS011;6381;45.748;12.106;2023-09-19T14:48:17;5.70;;;2.80;;
12631;SDS011;6381;45.748;12.106;2023-09-19T14:50:47;4.63;;;3.08;;
12631;SDS011;6381;45.748;12.106;2023-09-19T14:53:18;10.68;;;3.83;;
12631;SDS011;6381;45.748;12.106;2023-09-19T14:55:52;7.57;;;3.70;;
12631;SDS011;6381;45.748;12.106;2023-09-19T14:58:23;12.95;;;3.88;;
12631;SDS011;6381;45.748;12.106;2023-09-19T15:01:02;10.00;;;4.93;;
12631;SDS011;6381;45.748;12.106;2023-09-19T15:03:33;12.50;;;4.60;;
12631;SDS011;6381;45.748;12.106;2023-09-19T15:06:05;7.85;;;4.25;;
12631;SDS011;6381;45.748;12.106;2023-09-19T15:08:36;10.30;;;4.47;;
12631;SDS011;6381;45.748;12.106;2023-09-19T15:11:10;13.85;;;4.78;;
12631;SDS011;6381;45.748;12.106;2023-09-19T15:13:41;11.82;;;4.90;;
12631;SDS011;6381;45.748;12.106;2023-09-19T15:16:12;16.88;;;5.00;;
12631;SDS011;6381;45.748;12.106;2023-09-19T15:18:43;7.40;;;4.07;;
12631;SDS011;6381;45.748;12.106;2023-09-19T15:21:15;9.18;;;3.67;;
12631;SDS011;6381;45.748;12.106;2023-09-19T15:23:46;11.30;;;3.50;;
12631;SDS011;6381;45.748;12.106;2023-09-19T15:26:18;8.77;;;3.75;;
12631;SDS011;6381;45.748;12.106;2023-09-19T15:28:49;10.07;;;4.38;;
12631;SDS011;6381;45.748;12.106;2023-09-19T15:31:19;8.43;;;4.00;;